sensor_id;sensor_type;location;lat;lon;timestamp;P1;durP1;ratioP1;P2;durP2;ratioP2
63906;SDS011;50075;49.484;11.238;2023-04-15T00:01:20;537.22;;;297.67;;
63906;SDS011;50075;49.484;11.238;2023-04-15T00:03:45;565.35;;;319.65;;
63906;SDS011;50075;49.484;11.238;2023-04-15T00:06:11;581.40;;;316.23;;
63906;SDS011;50075;49.484;11.238;2023-04-15T00:08:37;581.22;;;333.88;;
63906;SDS011;50075;49.484;11.238;2023-04-15T00:11:03;564.70;;;311.90;;
63906;SDS011;50075;49.484;11.238;2023-04-15T00:13:29;567.58;;;317.33;;
63906;SDS011;50075;49.484;11.238;2023-04-15T00:15:55;578.80;;;344.38;;
63906;SDS011;50075;49.484;11.238;2023-04-15T00:18:20;595.03;;;343.70;;
63906;SDS011;50075;49.484;11.238;2023-04-15T00:20:45;561.97;;;347.70;;
63906;SDS011;50075;49.484;11.238;2023-04-15T00:23:11;563.38;;;343.40;;
63906;SDS011;50075;49.484;11.238;2023-04-15T00:25:36;585.65;;;331.02;;
63906;SDS011;50075;49.484;11.238;2023-04-15T00:28:01;587.30;;;345.08;;
63906;SDS011;50075;49.484;11.238;2023-04-15T00:30:28;587.28;;;339.00;;
63906;SDS011;50075;49.484;11.238;2023-04-15T00:32:53;670.42;;;338.63;;
63906;SDS011;50075;49.484;11.238;2023-04-15T00:35:18;566.23;;;338.40;;
63906;SDS011;50075;49.484;11.238;2023-04-15T00:37:43;556.05;;;341.13;;
63906;SDS011;50075;49.484;11.238;2023-04-15T00:40:10;591.78;;;346.02;;
63906;SDS011;50075;49.484;11.238;2023-04-15T00:42:36;564.25;;;313.40;;
63906;SDS011;50075;49.484;11.238;2023-04-15T00:45:01;564.78;;;317.60;;
63906;SDS011;50075;49.484;11.238;2023-04-15T00:47:27;578.85;;;328.10;;
63906;SDS011;50075;49.484;11.238;2023-04-15T00:49:53;598.45;;;340.45;;
63906;SDS011;50075;49.484;11.238;2023-04-15T00:52:18;577.63;;;341.27;;
63906;SDS011;50075;49.484;11.238;2023-04-15T00:54:43;581.30;;;313.55;;
63906;SDS011;50075;49.484;11.238;2023-04-15T00:57:08;589.25;;;317.30;;
63906;SDS011;50075;49.484;11.238;2023-04-15T00:59:34;587.60;;;327.95;;
63906;SDS011;50075;49.484;11.238;2023-04-15T01:02:00;561.25;;;333.30;;
63906;SDS011;50075;49.484;11.238;2023-04-15T01:04:25;595.42;;;335.27;;
63906;SDS011;50075;49.484;11.238;2023-04-15T01:06:51;580.15;;;309.13;;
63906;SDS011;50075;49.484;11.238;2023-04-15T01:09:16;571.65;;;308.38;;
63906;SDS011;50075;49.484;11.238;2023-04-15T01:11:42;550.88;;;306.77;;
63906;SDS011;50075;49.484;11.238;2023-04-15T01:14:08;543.45;;;301.35;;
63906;SDS011;50075;49.484;11.238;2023-04-15T01:16:33;580.13;;;317.35;;
63906;SDS011;50075;49.484;11.238;2023-04-15T01:18:58;605.22;;;333.55;;
63906;SDS011;50075;49.484;11.238;2023-04-15T01:21:24;544.15;;;308.48;;
63906;SDS011;50075;49.484;11.238;2023-04-15T01:23:49;600.08;;;338.88;;
63906;SDS011;50075;49.484;11.238;2023-04-15T01:26:14;602.42;;;345.45;;
63906;SDS011;50075;49.484;11.238;2023-04-15T01:28:40;584.70;;;331.45;;
63906;SDS011;50075;49.484;11.238;2023-04-15T01:33:31;585.50;;;333.42;;
63906;SDS011;50075;49.484;11.238;2023-04-15T01:35:57;593.83;;;330.10;;
63906;SDS011;50075;49.484;11.238;2023-04-15T01:38:22;585.25;;;338.88;;
63906;SDS011;50075;49.484;11.238;2023-04-15T01:40:48;550.70;;;317.67;;
63906;SDS011;50075;49.484;11.238;2023-04-15T01:43:13;599.20;;;326.30;;
63906;SDS011;50075;49.484;11.238;2023-04-15T01:45:39;588.90;;;340.55;;
63906;SDS011;50075;49.484;11.238;2023-04-15T01:48:04;594.78;;;347.05;;
63906;SDS011;50075;49.484;11.238;2023-04-15T01:50:30;556.92;;;328.98;;
63906;SDS011;50075;49.484;11.238;2023-04-15T01:52:55;642.25;;;343.10;;
63906;SDS011;50075;49.484;11.238;2023-04-15T01:55:21;582.17;;;345.15;;
63906;SDS011;50075;49.484;11.238;2023-04-15T01:57:46;577.20;;;338.42;;
63906;SDS011;50075;49.484;11.238;2023-04-15T02:00:11;574.53;;;348.75;;
63906;SDS011;50075;49.484;11.238;2023-04-15T02:02:37;593.05;;;349.80;;
63906;SDS011;50075;49.484;11.238;2023-04-15T02:05:02;587.95;;;346.80;;
63906;SDS011;50075;49.484;11.238;2023-04-15T02:07:29;542.38;;;318.05;;
63906;SDS011;50075;49.484;11.238;2023-04-15T02:09:56;558.58;;;311.35;;
63906;SDS011;50075;49.484;11.238;2023-04-15T02:12:21;537.28;;;303.98;;
63906;SDS011;50075;49.484;11.238;2023-04-15T02:14:46;571.83;;;296.57;;
63906;SDS011;50075;49.484;11.238;2023-04-15T02:17:12;543.35;;;304.50;;
63906;SDS011;50075;49.484;11.238;2023-04-15T02:19:37;541.45;;;296.27;;
63906;SDS011;50075;49.484;11.238;2023-04-15T02:22:03;581.42;;;290.88;;
63906;SDS011;50075;49.484;11.238;2023-04-15T02:24:29;538.97;;;293.42;;
63906;SDS011;50075;49.484;11.238;2023-04-15T02:26:54;542.38;;;298.23;;
63906;SDS011;50075;49.484;11.238;2023-04-15T02:29:20;561.67;;;303.23;;
63906;SDS011;50075;49.484;11.238;2023-04-15T02:31:45;560.83;;;311.70;;
63906;SDS011;50075;49.484;11.238;2023-04-15T02:34:12;539.30;;;310.33;;
63906;SDS011;50075;49.484;11.238;2023-04-15T02:36:38;543.88;;;307.63;;
63906;SDS011;50075;49.484;11.238;2023-04-15T02:39:04;602.22;;;315.27;;
63906;SDS011;50075;49.484;11.238;2023-04-15T02:41:30;539.78;;;288.55;;
63906;SDS011;50075;49.484;11.238;2023-04-15T02:43:55;541.22;;;292.42;;
63906;SDS011;50075;49.484;11.238;2023-04-15T02:46:21;549.55;;;300.45;;
63906;SDS011;50075;49.484;11.238;2023-04-15T02:48:47;576.03;;;318.80;;
63906;SDS011;50075;49.484;11.238;2023-04-15T02:53:40;578.35;;;323.80;;
63906;SDS011;50075;49.484;11.238;2023-04-15T02:56:06;538.20;;;297.70;;
63906;SDS011;50075;49.484;11.238;2023-04-15T02:58:32;505.30;;;281.05;;
63906;SDS011;50075;49.484;11.238;2023-04-15T03:00:58;549.13;;;287.88;;
63906;SDS011;50075;49.484;11.238;2023-04-15T03:03:24;542.20;;;296.35;;
63906;SDS011;50075;49.484;11.238;2023-04-15T03:05:49;590.75;;;319.50;;
63906;SDS011;50075;49.484;11.238;2023-04-15T03:08:14;547.50;;;302.27;;
63906;SDS011;50075;49.484;11.238;2023-04-15T03:10:39;529.47;;;282.98;;
63906;SDS011;50075;49.484;11.238;2023-04-15T03:13:05;653.03;;;291.25;;
63906;SDS011;50075;49.484;11.238;2023-04-15T03:15:31;521.70;;;285.23;;
63906;SDS011;50075;49.484;11.238;2023-04-15T03:17:56;531.30;;;287.05;;
63906;SDS011;50075;49.484;11.238;2023-04-15T03:20:22;545.97;;;294.77;;
63906;SDS011;50075;49.484;11.238;2023-04-15T03:22:48;539.90;;;306.80;;
63906;SDS011;50075;49.484;11.238;2023-04-15T03:25:13;543.88;;;311.15;;
63906;SDS011;50075;49.484;11.238;2023-04-15T03:27:38;563.92;;;312.42;;
63906;SDS011;50075;49.484;11.238;2023-04-15T03:30:03;527.50;;;299.42;;
63906;SDS011;50075;49.484;11.238;2023-04-15T03:32:29;587.08;;;297.80;;
63906;SDS011;50075;49.484;11.238;2023-04-15T03:34:54;543.78;;;310.90;;
63906;SDS011;50075;49.484;11.238;2023-04-15T03:37:20;549.60;;;302.80;;
63906;SDS011;50075;49.484;11.238;2023-04-15T03:39:45;563.30;;;291.38;;
63906;SDS011;50075;49.484;11.238;2023-04-15T03:42:10;520.10;;;306.98;;
63906;SDS011;50075;49.484;11.238;2023-04-15T03:44:36;550.20;;;316.83;;
63906;SDS011;50075;49.484;11.238;2023-04-15T03:47:01;515.67;;;294.23;;
63906;SDS011;50075;49.484;11.238;2023-04-15T03:49:26;518.92;;;302.67;;
63906;SDS011;50075;49.484;11.238;2023-04-15T03:51:51;560.63;;;297.83;;
63906;SDS011;50075;49.484;11.238;2023-04-15T03:54:17;537.65;;;287.33;;
63906;SDS011;50075;49.484;11.238;2023-04-15T03:56:42;518.67;;;291.52;;
63906;SDS011;50075;49.484;11.238;2023-04-15T03:59:07;603.65;;;314.17;;
63906;SDS011;50075;49.484;11.238;2023-04-15T04:01:32;541.95;;;308.65;;
63906;SDS011;50075;49.484;11.238;2023-04-15T04:03:58;544.10;;;303.38;;
63906;SDS011;50075;49.484;11.238;2023-04-15T04:06:23;545.70;;;301.38;;
63906;SDS011;50075;49.484;11.238;2023-04-15T04:08:48;529.83;;;293.15;;
63906;SDS011;50075;49.484;11.238;2023-04-15T04:11:13;509.30;;;284.75;;
63906;SDS011;50075;49.484;11.238;2023-04-15T04:13:39;528.90;;;298.25;;
63906;SDS011;50075;49.484;11.238;2023-04-15T04:16:04;545.97;;;312.20;;
63906;SDS011;50075;49.484;11.238;2023-04-15T04:18:33;560.38;;;308.85;;
63906;SDS011;50075;49.484;11.238;2023-04-15T04:20:58;531.47;;;301.33;;
63906;SDS011;50075;49.484;11.238;2023-04-15T04:23:24;534.88;;;293.38;;
63906;SDS011;50075;49.484;11.238;2023-04-15T04:25:49;550.03;;;290.58;;
63906;SDS011;50075;49.484;11.238;2023-04-15T04:28:14;520.25;;;288.77;;
63906;SDS011;50075;49.484;11.238;2023-04-15T04:30:40;563.15;;;318.42;;
63906;SDS011;50075;49.484;11.238;2023-04-15T04:33:05;656.53;;;333.77;;
63906;SDS011;50075;49.484;11.238;2023-04-15T04:35:31;527.47;;;312.65;;
63906;SDS011;50075;49.484;11.238;2023-04-15T04:37:58;569.92;;;309.20;;
63906;SDS011;50075;49.484;11.238;2023-04-15T04:40:24;526.55;;;310.77;;
63906;SDS011;50075;49.484;11.238;2023-04-15T04:42:49;562.08;;;307.73;;
63906;SDS011;50075;49.484;11.238;2023-04-15T04:45:15;559.47;;;312.05;;
63906;SDS011;50075;49.484;11.238;2023-04-15T04:47:40;531.92;;;301.52;;
63906;SDS011;50075;49.484;11.238;2023-04-15T04:50:05;540.30;;;322.10;;
63906;SDS011;50075;49.484;11.238;2023-04-15T04:52:31;532.88;;;315.92;;
63906;SDS011;50075;49.484;11.238;2023-04-15T04:54:56;548.35;;;318.60;;
63906;SDS011;50075;49.484;11.238;2023-04-15T04:57:21;537.65;;;282.55;;
63906;SDS011;50075;49.484;11.238;2023-04-15T04:59:46;532.20;;;297.10;;
63906;SDS011;50075;49.484;11.238;2023-04-15T05:02:12;567.65;;;328.90;;
63906;SDS011;50075;49.484;11.238;2023-04-15T05:04:37;555.30;;;304.58;;
63906;SDS011;50075;49.484;11.238;2023-04-15T05:07:02;561.28;;;323.33;;
63906;SDS011;50075;49.484;11.238;2023-04-15T05:09:28;557.38;;;321.17;;
63906;SDS011;50075;49.484;11.238;2023-04-15T05:11:56;529.10;;;308.40;;
63906;SDS011;50075;49.484;11.238;2023-04-15T05:14:21;555.65;;;338.20;;
63906;SDS011;50075;49.484;11.238;2023-04-15T05:16:46;576.60;;;306.20;;
63906;SDS011;50075;49.484;11.238;2023-04-15T05:19:11;538.55;;;291.10;;
63906;SDS011;50075;49.484;11.238;2023-04-15T05:21:37;534.85;;;287.70;;
63906;SDS011;50075;49.484;11.238;2023-04-15T05:24:02;547.28;;;307.55;;
63906;SDS011;50075;49.484;11.238;2023-04-15T05:26:28;562.70;;;329.70;;
63906;SDS011;50075;49.484;11.238;2023-04-15T05:28:53;615.03;;;334.80;;
63906;SDS011;50075;49.484;11.238;2023-04-15T05:31:19;555.33;;;334.52;;
63906;SDS011;50075;49.484;11.238;2023-04-15T05:33:44;556.30;;;315.90;;
63906;SDS011;50075;49.484;11.238;2023-04-15T05:36:09;576.05;;;321.92;;
63906;SDS011;50075;49.484;11.238;2023-04-15T05:38:35;555.50;;;333.40;;
63906;SDS011;50075;49.484;11.238;2023-04-15T05:41:01;548.58;;;336.95;;
63906;SDS011;50075;49.484;11.238;2023-04-15T05:43:26;526.42;;;295.42;;
63906;SDS011;50075;49.484;11.238;2023-04-15T05:45:51;567.33;;;312.80;;
63906;SDS011;50075;49.484;11.238;2023-04-15T05:48:17;579.75;;;341.30;;
63906;SDS011;50075;49.484;11.238;2023-04-15T05:50:42;575.63;;;334.08;;
63906;SDS011;50075;49.484;11.238;2023-04-15T05:53:08;582.13;;;332.48;;
63906;SDS011;50075;49.484;11.238;2023-04-15T05:55:33;575.40;;;336.77;;
63906;SDS011;50075;49.484;11.238;2023-04-15T05:57:58;559.17;;;330.77;;
63906;SDS011;50075;49.484;11.238;2023-04-15T06:00:23;552.85;;;321.25;;
63906;SDS011;50075;49.484;11.238;2023-04-15T06:02:49;582.08;;;314.88;;
63906;SDS011;50075;49.484;11.238;2023-04-15T06:05:14;556.58;;;329.42;;
63906;SDS011;50075;49.484;11.238;2023-04-15T06:07:39;583.65;;;357.17;;
63906;SDS011;50075;49.484;11.238;2023-04-15T06:10:05;571.10;;;358.67;;
63906;SDS011;50075;49.484;11.238;2023-04-15T06:12:31;556.72;;;347.13;;
63906;SDS011;50075;49.484;11.238;2023-04-15T06:14:56;582.75;;;359.73;;
63906;SDS011;50075;49.484;11.238;2023-04-15T06:17:22;590.30;;;354.00;;
63906;SDS011;50075;49.484;11.238;2023-04-15T06:19:47;565.65;;;320.75;;
63906;SDS011;50075;49.484;11.238;2023-04-15T06:22:14;598.17;;;320.35;;
63906;SDS011;50075;49.484;11.238;2023-04-15T06:24:39;555.53;;;325.60;;
63906;SDS011;50075;49.484;11.238;2023-04-15T06:27:05;533.00;;;293.80;;
63906;SDS011;50075;49.484;11.238;2023-04-15T06:29:30;499.08;;;271.95;;
63906;SDS011;50075;49.484;11.238;2023-04-15T06:31:55;520.97;;;279.83;;
63906;SDS011;50075;49.484;11.238;2023-04-15T06:34:20;561.97;;;301.92;;
63906;SDS011;50075;49.484;11.238;2023-04-15T06:36:46;536.25;;;288.73;;
63906;SDS011;50075;49.484;11.238;2023-04-15T06:39:12;519.40;;;283.85;;
63906;SDS011;50075;49.484;11.238;2023-04-15T06:41:37;545.30;;;287.40;;
63906;SDS011;50075;49.484;11.238;2023-04-15T06:44:02;518.92;;;286.30;;
63906;SDS011;50075;49.484;11.238;2023-04-15T06:46:28;530.40;;;281.67;;
63906;SDS011;50075;49.484;11.238;2023-04-15T06:48:53;566.42;;;295.17;;
63906;SDS011;50075;49.484;11.238;2023-04-15T06:51:18;551.30;;;291.25;;
63906;SDS011;50075;49.484;11.238;2023-04-15T06:53:43;562.85;;;287.88;;
63906;SDS011;50075;49.484;11.238;2023-04-15T06:56:09;531.97;;;274.58;;
63906;SDS011;50075;49.484;11.238;2023-04-15T06:58:35;524.25;;;288.75;;
63906;SDS011;50075;49.484;11.238;2023-04-15T07:01:00;560.60;;;295.98;;
63906;SDS011;50075;49.484;11.238;2023-04-15T07:03:25;534.70;;;304.20;;
63906;SDS011;50075;49.484;11.238;2023-04-15T07:05:51;524.72;;;288.92;;
63906;SDS011;50075;49.484;11.238;2023-04-15T07:08:16;551.40;;;297.63;;
63906;SDS011;50075;49.484;11.238;2023-04-15T07:10:41;543.88;;;305.50;;
63906;SDS011;50075;49.484;11.238;2023-04-15T07:13:07;624.27;;;339.37;;
63906;SDS011;50075;49.484;11.238;2023-04-15T07:15:32;589.38;;;352.75;;
63906;SDS011;50075;49.484;11.238;2023-04-15T07:17:58;554.38;;;348.35;;
63906;SDS011;50075;49.484;11.238;2023-04-15T07:20:23;587.80;;;324.73;;
63906;SDS011;50075;49.484;11.238;2023-04-15T07:22:48;572.72;;;330.35;;
63906;SDS011;50075;49.484;11.238;2023-04-15T07:25:14;600.33;;;345.02;;
63906;SDS011;50075;49.484;11.238;2023-04-15T07:27:39;558.70;;;316.92;;
63906;SDS011;50075;49.484;11.238;2023-04-15T07:30:04;556.53;;;337.30;;
63906;SDS011;50075;49.484;11.238;2023-04-15T07:32:30;617.03;;;356.25;;
63906;SDS011;50075;49.484;11.238;2023-04-15T07:34:55;593.25;;;347.77;;
63906;SDS011;50075;49.484;11.238;2023-04-15T07:37:21;593.50;;;348.90;;
63906;SDS011;50075;49.484;11.238;2023-04-15T07:39:47;623.85;;;354.38;;
63906;SDS011;50075;49.484;11.238;2023-04-15T07:42:13;617.00;;;354.67;;
63906;SDS011;50075;49.484;11.238;2023-04-15T07:44:39;603.40;;;353.13;;
63906;SDS011;50075;49.484;11.238;2023-04-15T07:47:04;597.13;;;352.33;;
63906;SDS011;50075;49.484;11.238;2023-04-15T07:49:30;600.00;;;370.60;;
63906;SDS011;50075;49.484;11.238;2023-04-15T07:51:55;639.33;;;387.45;;
63906;SDS011;50075;49.484;11.238;2023-04-15T07:54:21;623.08;;;383.15;;
63906;SDS011;50075;49.484;11.238;2023-04-15T07:56:46;630.05;;;384.35;;
63906;SDS011;50075;49.484;11.238;2023-04-15T07:59:12;670.20;;;394.30;;
63906;SDS011;50075;49.484;11.238;2023-04-15T08:01:39;630.72;;;380.55;;
63906;SDS011;50075;49.484;11.238;2023-04-15T08:04:04;617.33;;;376.20;;
63906;SDS011;50075;49.484;11.238;2023-04-15T08:06:29;606.13;;;368.70;;
63906;SDS011;50075;49.484;11.238;2023-04-15T08:08:54;671.60;;;386.40;;
63906;SDS011;50075;49.484;11.238;2023-04-15T08:11:20;638.45;;;382.02;;
63906;SDS011;50075;49.484;11.238;2023-04-15T08:13:45;645.03;;;394.65;;
63906;SDS011;50075;49.484;11.238;2023-04-15T08:16:17;651.05;;;390.02;;
63906;SDS011;50075;49.484;11.238;2023-04-15T08:18:43;652.25;;;385.15;;
63906;SDS011;50075;49.484;11.238;2023-04-15T08:21:09;603.05;;;387.38;;
63906;SDS011;50075;49.484;11.238;2023-04-15T08:23:34;653.55;;;385.73;;
63906;SDS011;50075;49.484;11.238;2023-04-15T08:25:59;619.40;;;386.92;;
63906;SDS011;50075;49.484;11.238;2023-04-15T08:28:24;575.78;;;351.73;;
63906;SDS011;50075;49.484;11.238;2023-04-15T08:30:51;661.35;;;390.15;;
63906;SDS011;50075;49.484;11.238;2023-04-15T08:33:16;594.42;;;361.67;;
63906;SDS011;50075;49.484;11.238;2023-04-15T08:35:42;554.13;;;313.75;;
63906;SDS011;50075;49.484;11.238;2023-04-15T08:38:07;540.97;;;286.70;;
63906;SDS011;50075;49.484;11.238;2023-04-15T08:40:35;561.00;;;299.47;;
63906;SDS011;50075;49.484;11.238;2023-04-15T08:43:04;724.72;;;330.15;;
63906;SDS011;50075;49.484;11.238;2023-04-15T08:45:29;539.22;;;311.33;;
63906;SDS011;50075;49.484;11.238;2023-04-15T08:47:55;584.20;;;329.77;;
63906;SDS011;50075;49.484;11.238;2023-04-15T08:50:21;522.97;;;280.58;;
63906;SDS011;50075;49.484;11.238;2023-04-15T08:52:46;645.20;;;313.55;;
63906;SDS011;50075;49.484;11.238;2023-04-15T08:55:11;566.17;;;279.10;;
63906;SDS011;50075;49.484;11.238;2023-04-15T08:57:37;574.50;;;285.98;;
63906;SDS011;50075;49.484;11.238;2023-04-15T09:00:03;561.15;;;292.85;;
63906;SDS011;50075;49.484;11.238;2023-04-15T09:02:29;516.13;;;263.05;;
63906;SDS011;50075;49.484;11.238;2023-04-15T09:04:55;530.97;;;276.30;;
63906;SDS011;50075;49.484;11.238;2023-04-15T09:07:20;544.05;;;281.45;;
63906;SDS011;50075;49.484;11.238;2023-04-15T09:09:47;588.00;;;286.23;;
63906;SDS011;50075;49.484;11.238;2023-04-15T09:12:12;581.45;;;307.88;;
63906;SDS011;50075;49.484;11.238;2023-04-15T09:14:38;586.10;;;290.17;;
63906;SDS011;50075;49.484;11.238;2023-04-15T09:17:04;552.20;;;285.08;;
63906;SDS011;50075;49.484;11.238;2023-04-15T09:19:30;550.88;;;293.05;;
63906;SDS011;50075;49.484;11.238;2023-04-15T09:21:57;610.97;;;315.25;;
63906;SDS011;50075;49.484;11.238;2023-04-15T09:24:24;576.63;;;312.67;;
63906;SDS011;50075;49.484;11.238;2023-04-15T09:26:51;570.72;;;286.73;;
63906;SDS011;50075;49.484;11.238;2023-04-15T09:29:17;598.35;;;318.85;;
63906;SDS011;50075;49.484;11.238;2023-04-15T09:31:42;613.97;;;315.15;;
63906;SDS011;50075;49.484;11.238;2023-04-15T09:34:07;650.10;;;321.85;;
63906;SDS011;50075;49.484;11.238;2023-04-15T09:36:50;584.65;;;308.63;;
63906;SDS011;50075;49.484;11.238;2023-04-15T09:39:16;604.90;;;303.05;;
63906;SDS011;50075;49.484;11.238;2023-04-15T09:41:42;614.47;;;312.33;;
63906;SDS011;50075;49.484;11.238;2023-04-15T09:44:21;616.55;;;302.17;;
63906;SDS011;50075;49.484;11.238;2023-04-15T09:46:46;650.17;;;321.83;;
63906;SDS011;50075;49.484;11.238;2023-04-15T09:49:11;622.40;;;302.02;;
63906;SDS011;50075;49.484;11.238;2023-04-15T09:51:37;662.30;;;306.58;;
63906;SDS011;50075;49.484;11.238;2023-04-15T09:54:02;629.97;;;304.55;;
63906;SDS011;50075;49.484;11.238;2023-04-15T09:56:33;635.70;;;295.65;;
63906;SDS011;50075;49.484;11.238;2023-04-15T09:58:58;665.05;;;309.73;;
63906;SDS011;50075;49.484;11.238;2023-04-15T10:01:24;647.45;;;308.45;;
63906;SDS011;50075;49.484;11.238;2023-04-15T10:03:49;629.42;;;285.55;;
63906;SDS011;50075;49.484;11.238;2023-04-15T10:06:16;604.42;;;287.23;;
63906;SDS011;50075;49.484;11.238;2023-04-15T10:08:41;610.83;;;287.05;;
63906;SDS011;50075;49.484;11.238;2023-04-15T10:11:07;630.35;;;282.10;;
63906;SDS011;50075;49.484;11.238;2023-04-15T10:13:32;602.38;;;278.65;;
63906;SDS011;50075;49.484;11.238;2023-04-15T10:16:03;593.67;;;277.00;;
63906;SDS011;50075;49.484;11.238;2023-04-15T10:18:29;601.97;;;282.50;;
63906;SDS011;50075;49.484;11.238;2023-04-15T10:20:56;624.28;;;297.55;;
63906;SDS011;50075;49.484;11.238;2023-04-15T10:23:22;625.65;;;279.10;;
63906;SDS011;50075;49.484;11.238;2023-04-15T10:25:48;591.78;;;257.60;;
63906;SDS011;50075;49.484;11.238;2023-04-15T10:28:15;618.67;;;269.30;;
63906;SDS011;50075;49.484;11.238;2023-04-15T10:30:41;655.92;;;280.00;;
63906;SDS011;50075;49.484;11.238;2023-04-15T10:33:07;733.65;;;290.80;;
63906;SDS011;50075;49.484;11.238;2023-04-15T10:35:33;608.38;;;267.10;;
63906;SDS011;50075;49.484;11.238;2023-04-15T10:37:58;621.00;;;281.23;;
63906;SDS011;50075;49.484;11.238;2023-04-15T10:40:28;598.70;;;268.05;;
63906;SDS011;50075;49.484;11.238;2023-04-15T10:42:57;751.92;;;279.17;;
63906;SDS011;50075;49.484;11.238;2023-04-15T10:45:26;588.08;;;265.27;;
63906;SDS011;50075;49.484;11.238;2023-04-15T10:47:55;631.05;;;264.17;;
63906;SDS011;50075;49.484;11.238;2023-04-15T10:50:21;587.53;;;242.90;;
63906;SDS011;50075;49.484;11.238;2023-04-15T10:52:49;663.97;;;257.08;;
63906;SDS011;50075;49.484;11.238;2023-04-15T10:57:40;600.53;;;244.60;;
63906;SDS011;50075;49.484;11.238;2023-04-15T11:02:51;590.30;;;249.70;;
63906;SDS011;50075;49.484;11.238;2023-04-15T11:05:17;644.65;;;266.63;;
63906;SDS011;50075;49.484;11.238;2023-04-15T11:12:36;607.57;;;251.13;;
63906;SDS011;50075;49.484;11.238;2023-04-15T11:17:46;619.50;;;262.35;;
63906;SDS011;50075;49.484;11.238;2023-04-15T11:20:13;615.25;;;260.52;;
63906;SDS011;50075;49.484;11.238;2023-04-15T11:22:45;661.17;;;257.20;;
63906;SDS011;50075;49.484;11.238;2023-04-15T11:25:20;596.60;;;255.18;;
63906;SDS011;50075;49.484;11.238;2023-04-15T11:27:45;691.70;;;268.05;;
63906;SDS011;50075;49.484;11.238;2023-04-15T11:30:18;625.28;;;276.33;;
63906;SDS011;50075;49.484;11.238;2023-04-15T11:32:44;621.03;;;261.23;;
63906;SDS011;50075;49.484;11.238;2023-04-15T11:35:09;622.22;;;280.40;;
63906;SDS011;50075;49.484;11.238;2023-04-15T11:37:34;644.80;;;285.93;;
63906;SDS011;50075;49.484;11.238;2023-04-15T11:40:01;656.50;;;284.10;;
63906;SDS011;50075;49.484;11.238;2023-04-15T11:42:26;639.67;;;283.55;;
63906;SDS011;50075;49.484;11.238;2023-04-15T11:45:04;675.85;;;291.08;;
63906;SDS011;50075;49.484;11.238;2023-04-15T11:47:30;685.33;;;295.48;;
63906;SDS011;50075;49.484;11.238;2023-04-15T11:49:55;623.08;;;265.77;;
63906;SDS011;50075;49.484;11.238;2023-04-15T11:52:20;587.70;;;227.90;;
63906;SDS011;50075;49.484;11.238;2023-04-15T11:54:46;611.50;;;249.60;;
63906;SDS011;50075;49.484;11.238;2023-04-15T11:57:12;596.00;;;259.95;;
63906;SDS011;50075;49.484;11.238;2023-04-15T11:59:41;642.65;;;259.88;;
63906;SDS011;50075;49.484;11.238;2023-04-15T12:02:10;621.85;;;266.48;;
63906;SDS011;50075;49.484;11.238;2023-04-15T12:04:36;618.00;;;263.15;;
63906;SDS011;50075;49.484;11.238;2023-04-15T12:07:04;631.75;;;274.25;;
63906;SDS011;50075;49.484;11.238;2023-04-15T12:09:31;673.47;;;279.98;;
63906;SDS011;50075;49.484;11.238;2023-04-15T12:19:13;230.18;;;73.32;;
63906;SDS011;50075;49.484;11.238;2023-04-15T12:21:40;519.72;;;215.30;;
63906;SDS011;50075;49.484;11.238;2023-04-15T12:24:06;548.20;;;223.13;;
63906;SDS011;50075;49.484;11.238;2023-04-15T12:26:48;509.20;;;202.75;;
63906;SDS011;50075;49.484;11.238;2023-04-15T12:29:14;489.70;;;181.57;;
63906;SDS011;50075;49.484;11.238;2023-04-15T12:31:50;512.38;;;204.95;;
63906;SDS011;50075;49.484;11.238;2023-04-15T12:34:16;582.25;;;237.48;;
63906;SDS011;50075;49.484;11.238;2023-04-15T12:36:42;584.83;;;230.27;;
63906;SDS011;50075;49.484;11.238;2023-04-15T12:39:07;608.08;;;242.35;;
63906;SDS011;50075;49.484;11.238;2023-04-15T12:41:32;586.83;;;260.63;;
63906;SDS011;50075;49.484;11.238;2023-04-15T12:43:58;552.80;;;230.43;;
63906;SDS011;50075;49.484;11.238;2023-04-15T12:46:23;581.97;;;258.55;;
63906;SDS011;50075;49.484;11.238;2023-04-15T12:48:49;629.50;;;268.95;;
63906;SDS011;50075;49.484;11.238;2023-04-15T12:51:15;639.85;;;284.52;;
63906;SDS011;50075;49.484;11.238;2023-04-15T12:53:40;768.33;;;284.57;;
63906;SDS011;50075;49.484;11.238;2023-04-15T12:56:05;666.80;;;287.58;;
63906;SDS011;50075;49.484;11.238;2023-04-15T12:58:31;664.63;;;273.63;;
63906;SDS011;50075;49.484;11.238;2023-04-15T13:00:56;686.03;;;294.75;;
63906;SDS011;50075;49.484;11.238;2023-04-15T13:03:21;582.53;;;240.97;;
63906;SDS011;50075;49.484;11.238;2023-04-15T13:05:47;588.87;;;240.00;;
63906;SDS011;50075;49.484;11.238;2023-04-15T13:08:12;615.33;;;249.67;;
63906;SDS011;50075;49.484;11.238;2023-04-15T13:10:37;596.60;;;254.80;;
63906;SDS011;50075;49.484;11.238;2023-04-15T13:13:03;722.63;;;264.48;;
63906;SDS011;50075;49.484;11.238;2023-04-15T13:15:28;670.20;;;294.75;;
63906;SDS011;50075;49.484;11.238;2023-04-15T13:17:53;595.30;;;263.63;;
63906;SDS011;50075;49.484;11.238;2023-04-15T13:20:19;699.25;;;302.92;;
63906;SDS011;50075;49.484;11.238;2023-04-15T13:22:44;678.42;;;314.02;;
63906;SDS011;50075;49.484;11.238;2023-04-15T13:25:10;716.13;;;340.85;;
63906;SDS011;50075;49.484;11.238;2023-04-15T13:27:35;719.13;;;337.90;;
63906;SDS011;50075;49.484;11.238;2023-04-15T13:30:01;705.72;;;343.48;;
63906;SDS011;50075;49.484;11.238;2023-04-15T13:32:26;725.10;;;334.20;;
63906;SDS011;50075;49.484;11.238;2023-04-15T13:34:51;693.03;;;323.33;;
63906;SDS011;50075;49.484;11.238;2023-04-15T13:37:16;742.65;;;347.60;;
63906;SDS011;50075;49.484;11.238;2023-04-15T13:39:41;740.93;;;331.63;;
63906;SDS011;50075;49.484;11.238;2023-04-15T13:42:07;730.93;;;352.53;;
63906;SDS011;50075;49.484;11.238;2023-04-15T13:44:32;659.28;;;294.58;;
63906;SDS011;50075;49.484;11.238;2023-04-15T13:46:57;721.97;;;333.60;;
63906;SDS011;50075;49.484;11.238;2023-04-15T13:49:22;692.28;;;324.92;;
63906;SDS011;50075;49.484;11.238;2023-04-15T13:51:48;692.20;;;316.00;;
63906;SDS011;50075;49.484;11.238;2023-04-15T13:54:13;688.73;;;319.90;;
63906;SDS011;50075;49.484;11.238;2023-04-15T13:56:38;670.30;;;304.23;;
63906;SDS011;50075;49.484;11.238;2023-04-15T13:59:03;797.90;;;363.30;;
63906;SDS011;50075;49.484;11.238;2023-04-15T14:01:30;700.95;;;328.65;;